createdAt,value
2018-03-17T00:01:50.447Z,-1.56
2018-03-17T00:11:09.362Z,-1.73
2018-03-17T00:13:48.035Z,-1.90
2018-03-17T00:16:26.544Z,-1.80
2018-03-17T00:19:04.420Z,-1.77
2018-03-17T00:21:42.705Z,-1.66
2018-03-17T00:24:20.477Z,-1.70
2018-03-17T00:43:29.287Z,-1.93
2018-03-17T00:46:07.246Z,-1.90
2018-03-17T00:48:45.228Z,-1.96
2018-03-17T01:07:48.436Z,-1.91
2018-03-17T01:10:26.513Z,-1.87
2018-03-17T01:13:04.765Z,-1.90
2018-03-17T01:32:08.677Z,-2.60
2018-03-17T01:34:46.552Z,-2.49
2018-03-17T01:37:24.658Z,-2.41
2018-03-17T01:56:30.949Z,-2.39
2018-03-17T01:59:09.357Z,-2.38
2018-03-17T02:01:47.484Z,-2.35
2018-03-17T02:20:55.192Z,-2.53
2018-03-17T02:23:33.385Z,-2.62
2018-03-17T02:26:11.796Z,-2.68
2018-03-17T02:45:20.053Z,-2.72
2018-03-17T02:47:58.541Z,-2.72
2018-03-17T02:50:36.763Z,-2.60
2018-03-17T02:53:15.172Z,-2.67
2018-03-17T03:12:20.334Z,-2.86
2018-03-17T03:14:58.131Z,-2.88
2018-03-17T03:17:35.853Z,-2.97
2018-03-17T03:36:43.843Z,-3.27
2018-03-17T03:40:46.329Z,-3.32
2018-03-17T03:43:24.443Z,-3.27
2018-03-17T04:02:31.221Z,-3.48
2018-03-17T04:05:09.056Z,-3.50
2018-03-17T04:07:47.527Z,-3.53
2018-03-17T04:26:54.338Z,-3.73
2018-03-17T04:29:32.349Z,-3.77
2018-03-17T04:32:10.220Z,-3.80
2018-03-17T04:51:19.382Z,-3.77
2018-03-17T04:53:57.224Z,-3.85
2018-03-17T04:56:35.092Z,-3.93
2018-03-17T05:15:37.846Z,-4.22
2018-03-17T05:18:15.694Z,-4.25
2018-03-17T05:20:53.446Z,-4.25
2018-03-17T05:40:01.311Z,-4.33
2018-03-17T05:42:39.017Z,-4.25
2018-03-17T05:45:17.126Z,-4.37
2018-03-17T06:04:23.611Z,-4.52
2018-03-17T06:07:01.601Z,-4.35
2018-03-17T06:09:39.297Z,-4.36
2018-03-17T06:28:49.383Z,-4.47
2018-03-17T06:31:27.518Z,-4.47
2018-03-17T06:34:05.956Z,-4.48
2018-03-17T06:36:44.895Z,-4.49
2018-03-17T06:39:22.739Z,-4.57
2018-03-17T06:42:00.698Z,-4.50
2018-03-17T06:44:39.568Z,-4.55
2018-03-17T06:47:17.931Z,-4.51
2018-03-17T06:49:56.518Z,-4.70
2018-03-17T06:52:34.703Z,-4.63
2018-03-17T06:55:13.359Z,-4.54
2018-03-17T06:57:52.703Z,-4.53
2018-03-17T07:00:31.157Z,-4.68
2018-03-17T07:03:08.901Z,-4.70
2018-03-17T07:05:41.537Z,-4.75
2018-03-17T07:08:15.961Z,-4.82
2018-03-17T07:10:48.455Z,-4.76
2018-03-17T07:13:21.836Z,-4.64
2018-03-17T07:15:55.552Z,-4.79
2018-03-17T07:18:27.934Z,-4.81
2018-03-17T07:21:01.832Z,-4.70
2018-03-17T07:23:34.503Z,-4.68
2018-03-17T07:26:07.798Z,-4.62
2018-03-17T07:28:41.819Z,-4.56
2018-03-17T07:31:14.134Z,-4.64
2018-03-17T07:33:48.730Z,-4.65
2018-03-17T07:36:21.207Z,-4.53
2018-03-17T07:38:53.885Z,-4.61
2018-03-17T07:41:28.857Z,-4.55
2018-03-17T07:44:01.486Z,-4.42
2018-03-17T07:46:34.266Z,-4.26
2018-03-17T07:49:07.684Z,-4.49
2018-03-17T07:51:40.329Z,-4.53
2018-03-17T07:54:13.046Z,-4.40
2018-03-17T07:56:46.814Z,-4.61
2018-03-17T07:59:19.716Z,-4.62
2018-03-17T08:01:52.382Z,-4.56
2018-03-17T08:04:25.583Z,-4.50
2018-03-17T08:07:00.633Z,-4.54
2018-03-17T08:09:33.139Z,-4.62
2018-03-17T08:12:05.831Z,-4.53
2018-03-17T08:14:39.660Z,-4.40
2018-03-17T08:17:13.802Z,-4.62
2018-03-17T08:19:47.543Z,-4.64
2018-03-17T08:22:20.842Z,-4.25
2018-03-17T08:24:54.159Z,-4.41
2018-03-17T08:27:27.530Z,-4.17
2018-03-17T08:30:00.706Z,-4.16
2018-03-17T08:32:39.430Z,-4.21
2018-03-17T08:35:11.880Z,-4.28
2018-03-17T08:37:44.484Z,-4.19
2018-03-17T08:40:17.213Z,-4.43
2018-03-17T08:42:51.357Z,-4.50
2018-03-17T08:45:25.203Z,-4.42
2018-03-17T08:47:58.692Z,-4.42
2018-03-17T08:50:31.364Z,-4.43
2018-03-17T08:53:05.137Z,-4.39
2018-03-17T08:55:39.848Z,-4.41
2018-03-17T08:58:13.930Z,-4.17
2018-03-17T09:00:46.119Z,-4.32
2018-03-17T09:03:19.192Z,-4.22
2018-03-17T09:05:51.542Z,-4.35
2018-03-17T09:08:23.874Z,-4.28
2018-03-17T09:10:56.711Z,-4.06
2018-03-17T09:13:29.229Z,-4.14
2018-03-17T09:16:02.097Z,-4.34
2018-03-17T09:18:36.055Z,-4.37
2018-03-17T09:21:08.623Z,-4.27
2018-03-17T09:23:42.108Z,-4.25
2018-03-17T09:26:14.708Z,-4.10
2018-03-17T09:28:47.592Z,-3.99
2018-03-17T09:31:20.110Z,-4.07
2018-03-17T09:33:52.992Z,-4.27
2018-03-17T09:36:26.218Z,-4.17
2018-03-17T09:38:58.844Z,-4.01
2018-03-17T09:41:32.571Z,-4.01
2018-03-17T09:44:05.182Z,-4.10
2018-03-17T09:46:37.787Z,-4.13
2018-03-17T09:49:10.491Z,-4.06
2018-03-17T09:51:43.011Z,-4.19
2018-03-17T09:54:15.479Z,-3.92
2018-03-17T09:56:49.205Z,-4.00
2018-03-17T09:59:21.483Z,-3.94
2018-03-17T10:01:54.161Z,-3.98
2018-03-17T10:04:28.111Z,-3.75
2018-03-17T10:07:01.098Z,-3.91
2018-03-17T10:09:33.789Z,-3.95
2018-03-17T10:12:06.555Z,-3.65
2018-03-17T10:14:40.403Z,-3.87
2018-03-17T10:17:13.026Z,-3.45
2018-03-17T10:19:45.735Z,-3.46
2018-03-17T10:22:18.246Z,-3.62
2018-03-17T10:24:52.578Z,-3.45
2018-03-17T10:27:25.862Z,-3.48
2018-03-17T10:29:58.522Z,-3.44
2018-03-17T10:32:31.196Z,-3.85
2018-03-17T10:35:04.683Z,-3.87
2018-03-17T10:37:37.078Z,-3.84
2018-03-17T10:40:11.368Z,-3.57
2018-03-17T10:42:52.019Z,-3.65
2018-03-17T10:48:46.203Z,-3.43
2018-03-17T10:51:23.770Z,-3.27
2018-03-17T10:53:59.044Z,-3.47
2018-03-17T10:56:34.156Z,-3.42
2018-03-17T10:59:07.332Z,-3.62
2018-03-17T11:01:42.555Z,-3.85
2018-03-17T11:04:15.150Z,-3.69
2018-03-17T11:06:47.829Z,-3.71
2018-03-17T11:09:20.216Z,-3.75
2018-03-17T11:11:53.027Z,-3.46
2018-03-17T11:14:25.639Z,-3.83
2018-03-17T11:16:57.828Z,-3.97
2018-03-17T11:19:30.260Z,-3.91
2018-03-17T11:22:03.567Z,-3.77
2018-03-17T11:24:36.429Z,-3.88
2018-03-17T11:27:10.649Z,-3.86
2018-03-17T11:29:43.835Z,-3.82
2018-03-17T11:32:17.582Z,-3.85
2018-03-17T11:34:50.459Z,-3.80
2018-03-17T11:37:23.824Z,-3.55
2018-03-17T11:39:57.319Z,-3.83
2018-03-17T11:42:30.554Z,-3.77
2018-03-17T11:45:03.808Z,-3.51
2018-03-17T11:47:37.104Z,-3.62
2018-03-17T11:50:10.341Z,-3.45
2018-03-17T11:52:45.128Z,-3.22
2018-03-17T11:55:18.909Z,-3.43
2018-03-17T11:57:51.865Z,-3.57
2018-03-17T13:22:26.360Z,-3.68
2018-03-17T13:24:59.624Z,-3.91
2018-03-17T13:28:43.435Z,-3.89
2018-03-17T13:31:17.705Z,-3.88
2018-03-17T13:33:50.858Z,-3.86
2018-03-17T13:37:37.111Z,-3.77
2018-03-17T13:40:23.734Z,-3.76
2018-03-17T13:42:57.098Z,-3.72
2018-03-17T13:45:30.127Z,-3.88
2018-03-17T13:48:03.052Z,-3.77
2018-03-17T13:50:35.990Z,-3.89
2018-03-17T13:53:09.122Z,-3.76
2018-03-17T13:55:41.616Z,-3.71
2018-03-17T13:58:14.711Z,-3.91
2018-03-17T14:00:47.530Z,-3.96
2018-03-17T14:03:21.462Z,-3.80
2018-03-17T14:05:54.653Z,-3.88
2018-03-17T14:08:27.700Z,-3.90
2018-03-17T14:11:00.462Z,-4.02
2018-03-17T14:13:33.344Z,-4.01
2018-03-17T14:16:08.335Z,-3.91
2018-03-17T14:18:41.001Z,-3.89
2018-03-17T14:21:13.911Z,-4.06
2018-03-17T14:23:47.528Z,-4.06
2018-03-17T14:26:20.670Z,-4.28
2018-03-17T14:28:53.282Z,-4.24
2018-03-17T14:31:26.786Z,-4.22
2018-03-17T14:33:59.450Z,-4.20
2018-03-17T14:36:31.983Z,-4.30
2018-03-17T14:39:08.261Z,-4.24
2018-03-17T14:41:42.189Z,-4.33
2018-03-17T14:44:15.223Z,-4.36
2018-03-17T14:46:49.931Z,-4.29
2018-03-17T14:49:23.335Z,-4.28
2018-03-17T14:51:56.458Z,-4.25
2018-03-17T14:57:07.861Z,-4.29
2018-03-17T14:59:40.949Z,-4.27
2018-03-17T15:02:15.226Z,-4.13
2018-03-17T15:04:48.846Z,-4.18
2018-03-17T15:07:21.882Z,-4.12
2018-03-17T15:09:55.652Z,-4.12
2018-03-17T15:12:28.392Z,-4.21
2018-03-17T15:15:02.550Z,-4.26
2018-03-17T15:17:35.954Z,-3.96
2018-03-17T15:20:10.671Z,-4.16
2018-03-17T15:22:44.608Z,-4.11
2018-03-17T15:25:18.811Z,-4.10
2018-03-17T15:27:53.020Z,-4.10
2018-03-17T15:30:26.729Z,-4.07
2018-03-17T15:33:01.200Z,-4.04
2018-03-17T15:35:35.174Z,-4.02
2018-03-17T15:38:08.990Z,-4.03
2018-03-17T15:40:44.676Z,-4.19
2018-03-17T15:43:17.722Z,-4.16
2018-03-17T15:45:51.044Z,-4.18
2018-03-17T15:48:26.549Z,-4.17
2018-03-17T15:50:59.604Z,-4.23
2018-03-17T15:53:32.627Z,-4.32
2018-03-17T15:56:09.476Z,-4.19
2018-03-17T15:58:43.541Z,-4.30
2018-03-17T16:01:16.142Z,-4.34
2018-03-17T16:03:49.478Z,-4.28
2018-03-17T16:06:22.155Z,-4.27
2018-03-17T16:08:56.043Z,-4.10
2018-03-17T16:11:33.696Z,-4.05
2018-03-17T16:14:06.415Z,-4.21
2018-03-17T16:16:39.613Z,-4.24
2018-03-17T16:19:16.105Z,-4.18
2018-03-17T16:21:50.766Z,-4.26
2018-03-17T16:24:23.582Z,-4.19
2018-03-17T16:27:01.387Z,-4.24
2018-03-17T16:29:34.872Z,-4.11
2018-03-17T16:32:07.322Z,-4.23
2018-03-17T16:37:19.154Z,-4.19
2018-03-17T16:39:52.357Z,-4.13
2018-03-17T16:42:26.024Z,-4.12
2018-03-17T16:44:58.653Z,-4.10
2018-03-17T16:47:36.301Z,-4.22
2018-03-17T16:50:09.491Z,-4.27
2018-03-17T16:52:42.302Z,-4.10
2018-03-17T16:55:15.456Z,-4.12
2018-03-17T16:57:48.332Z,-4.05
2018-03-17T17:00:21.080Z,-4.19
2018-03-17T17:02:54.655Z,-4.15
2018-03-17T17:05:38.743Z,-4.10
2018-03-17T17:11:31.062Z,-4.09
2018-03-17T17:37:08.996Z,-4.09
2018-03-17T17:39:41.711Z,-4.05
2018-03-17T17:42:14.242Z,-4.11
2018-03-17T17:44:59.640Z,-4.10
2018-03-17T17:47:33.229Z,-3.95
2018-03-17T17:50:06.726Z,-3.93
2018-03-17T17:52:40.185Z,-4.01
2018-03-17T17:55:24.558Z,-4.01
2018-03-17T17:58:09.440Z,-4.03
2018-03-17T18:00:50.420Z,-4.04
2018-03-17T18:03:30.935Z,-4.22
2018-03-17T18:06:11.092Z,-4.06
2018-03-17T18:08:44.357Z,-4.08
2018-03-17T18:11:16.841Z,-4.09
2018-03-17T18:13:56.888Z,-4.16
2018-03-17T18:16:30.483Z,-4.10
2018-03-17T18:19:09.869Z,-4.13
2018-03-17T18:21:42.645Z,-4.01
2018-03-17T18:24:25.566Z,-4.07
2018-03-17T18:26:58.352Z,-4.00
2018-03-17T18:29:37.536Z,-4.09
2018-03-17T18:32:17.408Z,-4.14
2018-03-17T18:34:53.459Z,-4.01
2018-03-17T18:37:32.049Z,-3.97
2018-03-17T18:40:11.046Z,-4.05
2018-03-17T18:46:09.529Z,-4.01
2018-03-17T18:48:50.525Z,-3.96
2018-03-17T18:55:00.018Z,-3.94
2018-03-17T18:57:34.359Z,-4.01
2018-03-17T19:03:30.092Z,-3.93
2018-03-17T19:06:09.531Z,-3.92
2018-03-17T19:08:54.365Z,-4.01
2018-03-17T19:11:28.098Z,-3.91
2018-03-17T19:14:07.613Z,-3.91
2018-03-17T19:19:32.450Z,-3.98
2018-03-17T19:22:12.468Z,-3.99
2018-03-17T19:24:45.940Z,-3.86
2018-03-17T19:27:26.492Z,-3.87
2018-03-17T19:29:59.549Z,-4.00
2018-03-17T19:32:32.642Z,-3.94
2018-03-17T19:35:17.489Z,-3.93
2018-03-17T19:37:50.283Z,-4.03
2018-03-17T19:40:25.207Z,-3.95
2018-03-17T19:42:58.113Z,-3.94
2018-03-17T19:45:30.765Z,-3.96
2018-03-17T19:48:05.007Z,-3.83
2018-03-17T19:50:38.567Z,-3.91
2018-03-17T19:53:11.405Z,-3.89
2018-03-17T19:55:51.111Z,-3.88
2018-03-17T19:58:25.800Z,-3.82
2018-03-17T20:01:05.406Z,-3.85
2018-03-17T20:03:45.333Z,-3.87
2018-03-17T20:06:23.383Z,-3.85
2018-03-17T20:09:05.728Z,-3.83
2018-03-17T20:11:38.674Z,-3.81
2018-03-17T20:14:11.707Z,-3.79
2018-03-17T20:16:48.495Z,-3.67
2018-03-17T20:19:29.289Z,-3.76
2018-03-17T20:22:09.217Z,-3.89
2018-03-17T20:24:49.871Z,-3.87
2018-03-17T20:28:52.819Z,-3.69
2018-03-17T20:31:25.608Z,-3.70
2018-03-17T20:34:04.397Z,-3.83
2018-03-17T20:36:44.901Z,-3.65
2018-03-17T20:39:19.265Z,-3.75
2018-03-17T20:41:54.329Z,-3.73
2018-03-17T20:44:28.473Z,-3.80
2018-03-17T20:47:02.703Z,-3.87
2018-03-17T20:49:38.491Z,-3.83
2018-03-17T20:52:12.221Z,-3.81
2018-03-17T20:54:49.137Z,-3.90
2018-03-17T20:57:23.203Z,-3.88
2018-03-17T21:00:03.701Z,-3.80
2018-03-17T21:02:38.110Z,-3.75
2018-03-17T21:05:18.347Z,-3.77
2018-03-17T21:08:00.516Z,-3.82
2018-03-17T21:10:42.167Z,-3.75
2018-03-17T21:13:23.363Z,-3.73
2018-03-17T21:16:01.920Z,-3.86
2018-03-17T21:18:43.156Z,-3.90
2018-03-17T21:22:52.272Z,-3.79
2018-03-17T21:25:43.707Z,-3.91
2018-03-17T21:28:25.409Z,-3.76
2018-03-17T21:31:01.727Z,-3.78
2018-03-17T21:33:38.083Z,-3.96
2018-03-17T21:36:14.565Z,-3.89
2018-03-17T21:38:51.131Z,-3.96
2018-03-17T21:41:30.733Z,-3.97
2018-03-17T21:44:18.304Z,-3.90
2018-03-17T21:49:58.716Z,-3.91
2018-03-17T21:52:40.990Z,-3.89
2018-03-17T21:55:19.002Z,-3.77
2018-03-17T21:57:56.149Z,-3.77
2018-03-17T22:00:42.336Z,-3.69
2018-03-17T22:03:22.746Z,-3.91
2018-03-17T22:06:07.259Z,-3.74
2018-03-17T22:08:46.432Z,-3.79
2018-03-17T22:11:25.956Z,-3.91
2018-03-17T22:14:14.790Z,-3.98
2018-03-17T22:16:52.481Z,-3.93
2018-03-17T22:19:36.541Z,-3.76
2018-03-17T22:22:17.663Z,-3.83
2018-03-17T22:24:57.470Z,-3.94
2018-03-17T22:27:34.110Z,-3.90
2018-03-17T22:30:14.428Z,-3.99
2018-03-17T22:32:55.032Z,-4.05
2018-03-17T22:35:35.770Z,-3.89
2018-03-17T22:38:22.828Z,-4.07
2018-03-17T22:40:58.057Z,-4.00
2018-03-17T22:43:30.834Z,-3.92
2018-03-17T22:46:03.726Z,-4.02
2018-03-17T22:48:37.217Z,-4.06
2018-03-17T22:51:16.294Z,-3.96
2018-03-17T22:53:48.885Z,-4.03
2018-03-17T22:56:21.504Z,-4.02
2018-03-17T22:59:00.113Z,-4.03
2018-03-17T23:01:32.938Z,-4.02
2018-03-17T23:04:05.807Z,-3.95
2018-03-17T23:06:46.129Z,-4.13
2018-03-17T23:09:20.128Z,-4.00
2018-03-17T23:11:52.717Z,-3.84
2018-03-17T23:14:32.237Z,-4.01
2018-03-17T23:17:06.635Z,-3.88
2018-03-17T23:19:44.756Z,-4.07
2018-03-17T23:22:23.729Z,-3.93
2018-03-17T23:25:02.714Z,-3.94
2018-03-17T23:27:35.258Z,-4.10
2018-03-17T23:30:07.884Z,-4.04
2018-03-17T23:32:40.571Z,-3.97
2018-03-17T23:35:19.196Z,-3.82
2018-03-17T23:37:51.817Z,-4.03
2018-03-17T23:40:24.337Z,-3.83
2018-03-17T23:42:56.695Z,-3.97
2018-03-17T23:45:29.591Z,-3.96
2018-03-17T23:48:03.584Z,-3.93
2018-03-17T23:50:36.166Z,-3.87
2018-03-17T23:53:12.365Z,-3.85
2018-03-17T23:55:45.174Z,-4.03
2018-03-17T23:58:17.678Z,-4.12
